Time;durP1;ratioP1;P1;durP2;ratioP2;P2;SDS_P1;SDS_P2;PMS_P1;PMS_P2;Temp;Humidity;BMP_temperature;BMP_pressure;BME280_temperature;BME280_humidity;BME280_pressure;Samples;Min_cycle;Max_cycle;Signal;HPM_P1;HPM_P2
2021/07/28 00:01:01;;;;;;;5.80;5.27;;;19.10;99.90;;;;;;6145112;23;20435;-86
2021/07/28 00:03:54;;;;;;;7.70;6.40;;;19.10;99.90;;;;;;6148532;23;20454;-87
2021/07/28 00:07:04;;;;;;;7.17;6.27;;;19.00;99.90;;;;;;6115719;23;20463;-88
2021/07/28 00:09:50;;;;;;;6.37;5.77;;;19.00;99.90;;;;;;6119425;23;20454;-88
2021/07/28 00:12:25;;;;;;;5.60;5.10;;;19.00;99.90;;;;;;6118716;23;20411;-88
2021/07/28 00:14:55;;;;;;;5.67;5.07;;;18.90;99.90;;;;;;6093702;23;20419;-87
2021/07/28 00:17:32;;;;;;;6.23;5.63;;;18.90;99.90;;;;;;6140739;23;20404;-88
2021/07/28 00:20:06;;;;;;;6.07;5.40;;;18.80;99.90;;;;;;6118573;23;20416;-90
2021/07/28 00:25:25;;;;;;;6.63;5.97;;;18.90;99.90;;;;;;6151872;23;20400;-90
2021/07/28 00:27:57;;;;;;;6.10;5.50;;;18.90;99.90;;;;;;6151925;23;20507;-89
2021/07/28 00:30:44;;;;;;;7.00;6.30;;;18.90;99.90;;;;;;6146680;23;20450;-87
2021/07/28 00:33:14;;;;;;;7.53;6.67;;;18.90;99.90;;;;;;6140380;23;20503;-86
2021/07/28 00:35:54;;;;;;;9.30;5.67;;;18.90;99.90;;;;;;6113566;23;20412;-85
2021/07/28 00:38:34;;;;;;;6.10;5.47;;;18.80;99.90;;;;;;6110762;23;20432;-86
2021/07/28 00:41:02;;;;;;;6.43;5.83;;;18.80;99.90;;;;;;6113980;23;20443;-88
2021/07/28 00:43:29;;;;;;;6.47;5.87;;;18.80;99.90;;;;;;6113450;23;20444;-87
2021/07/28 00:46:21;;;;;;;6.43;5.17;;;18.90;99.90;;;;;;6100202;23;20443;-87
2021/07/28 00:48:52;;;;;;;6.33;5.73;;;18.70;99.90;;;;;;6114366;23;20524;-87
2021/07/28 00:51:21;;;;;;;7.40;6.70;;;18.70;99.90;;;;;;6116077;23;20388;-88
2021/07/28 00:54:18;;;;;;;6.67;6.03;;;18.90;99.90;;;;;;6140472;23;20415;-86
2021/07/28 00:56:48;;;;;;;6.50;5.90;;;19.00;99.90;;;;;;6143891;23;20507;-89
2021/07/28 00:59:30;;;;;;;8.40;5.90;;;18.80;99.90;;;;;;6126152;23;20443;-89
2021/07/28 01:02:21;;;;;;;6.50;5.90;;;18.90;99.90;;;;;;6104950;23;20419;-87
2021/07/28 01:04:51;;;;;;;7.60;6.10;;;18.90;99.90;;;;;;6126711;23;20425;-89
2021/07/28 01:07:43;;;;;;;7.10;5.80;;;19.00;99.90;;;;;;6149601;23;20510;-88
2021/07/28 01:10:13;;;;;;;8.53;5.80;;;19.00;99.90;;;;;;6127689;23;20416;-88
2021/07/28 01:12:51;;;;;;;7.93;7.13;;;18.90;99.90;;;;;;6125976;23;20426;-89
2021/07/28 01:15:40;;;;;;;8.90;6.90;;;19.00;99.90;;;;;;6151985;23;20424;-87
2021/07/28 01:18:13;;;;;;;6.47;5.80;;;18.90;99.90;;;;;;6127200;23;20431;-87
2021/07/28 01:20:44;;;;;;;9.10;6.10;;;18.80;99.90;;;;;;6127007;23;20467;-90
2021/07/28 01:23:24;;;;;;;7.33;6.63;;;18.80;99.90;;;;;;6127917;23;20388;-87
2021/07/28 01:30:08;;;;;;;8.80;6.83;;;18.80;99.90;;;;;;6034242;23;20438;-89
2021/07/28 01:32:54;;;;;;;6.90;6.20;;;19.10;99.90;;;;;;6138367;23;20450;-85
2021/07/28 01:35:24;;;;;;;7.23;6.53;;;19.00;99.90;;;;;;6107783;23;20495;-86
2021/07/28 01:37:51;;;;;;;9.90;6.77;;;18.90;99.90;;;;;;6133889;23;20922;-86
2021/07/28 01:40:21;;;;;;;7.30;6.60;;;18.70;99.90;;;;;;6133218;23;20415;-86
2021/07/28 01:42:50;;;;;;;6.93;5.77;;;18.80;99.90;;;;;;6110049;23;20400;-87
2021/07/28 01:45:55;;;;;;;8.13;6.80;;;18.90;99.90;;;;;;6109940;23;20443;-87
2021/07/28 01:48:26;;;;;;;7.50;6.67;;;18.90;99.90;;;;;;6095907;23;20505;-84
2021/07/28 01:51:03;;;;;;;8.20;7.10;;;18.80;99.90;;;;;;6134804;23;20434;-86
2021/07/28 01:53:51;;;;;;;9.13;7.03;;;18.80;99.90;;;;;;6138216;23;20406;-86
2021/07/28 01:56:27;;;;;;;6.90;6.20;;;18.80;99.90;;;;;;6135850;23;20499;-85
2021/07/28 01:58:55;;;;;;;7.40;6.70;;;18.80;99.90;;;;;;6110637;23;20435;-85
2021/07/28 02:01:25;;;;;;;6.70;6.10;;;18.90;99.90;;;;;;6111142;23;20457;-89
2021/07/28 02:03:58;;;;;;;7.53;6.83;;;18.80;99.90;;;;;;6134366;23;20411;-86
2021/07/28 02:06:59;;;;;;;8.13;6.80;;;18.70;99.90;;;;;;6132703;23;20436;-87
2021/07/28 02:10:21;;;;;;;7.87;6.70;;;18.70;99.90;;;;;;6124763;23;20447;-86
2021/07/28 02:12:48;;;;;;;7.70;6.37;;;18.60;99.90;;;;;;6119775;23;20420;-85
2021/07/28 02:15:30;;;;;;;11.13;6.80;;;18.50;99.90;;;;;;6108192;23;20449;-88
2021/07/28 02:18:23;;;;;;;7.27;6.57;;;18.80;99.90;;;;;;6112942;23;20435;-86
2021/07/28 02:21:56;;;;;;;;;;;;;;;;;;;;;
2021/07/28 02:24:28;;;;;;;7.90;6.83;;;18.90;99.90;;;;;;6136332;23;20442;-86
2021/07/28 02:27:15;;;;;;;7.20;6.50;;;18.90;99.90;;;;;;6136201;23;21249;-86
2021/07/28 02:29:45;;;;;;;10.07;7.70;;;18.80;99.90;;;;;;6135928;23;20466;-86
2021/07/28 02:32:15;;;;;;;8.20;6.97;;;18.80;99.90;;;;;;6109679;23;20406;-87
2021/07/28 02:34:41;;;;;;;7.67;6.83;;;18.80;99.90;;;;;;6135227;23;20435;-84
2021/07/28 02:37:08;;;;;;;8.60;6.63;;;18.90;99.90;;;;;;6133970;23;20495;-86
2021/07/28 02:39:38;;;;;;;9.67;7.37;;;18.90;99.90;;;;;;6135114;23;20451;-87
2021/07/28 02:42:08;;;;;;;8.50;7.60;;;18.80;99.90;;;;;;6133718;23;20424;-88
2021/07/28 02:44:34;;;;;;;11.80;7.60;;;18.80;99.90;;;;;;6109265;23;20392;-86
2021/07/28 02:47:04;;;;;;;8.20;7.37;;;18.80;99.90;;;;;;6133135;23;20443;-84
2021/07/28 02:49:47;;;;;;;8.30;6.93;;;18.70;99.90;;;;;;6138118;23;20440;-87
2021/07/28 02:53:04;;;;;;;9.97;7.23;;;18.80;99.90;;;;;;6112937;23;20446;-88
2021/07/28 02:55:48;;;;;;;7.50;6.40;;;18.80;99.90;;;;;;6113963;23;20400;-88
2021/07/28 02:58:18;;;;;;;7.93;6.77;;;18.80;99.90;;;;;;6135825;23;20431;-86
2021/07/28 03:00:47;;;;;;;8.63;7.73;;;18.90;99.90;;;;;;6110541;23;20475;-86
2021/07/28 03:03:16;;;;;;;10.67;7.20;;;18.90;99.90;;;;;;6110419;23;20488;-87
2021/07/28 03:05:45;;;;;;;8.50;7.70;;;18.90;99.90;;;;;;6109342;23;20748;-86
2021/07/28 03:08:12;;;;;;;8.07;7.27;;;19.00;99.90;;;;;;6136307;23;20508;-87
2021/07/28 03:10:41;;;;;;;8.80;7.33;;;19.10;99.90;;;;;;6110009;23;20415;-86
2021/07/28 03:13:16;;;;;;;8.10;7.50;;;18.80;99.90;;;;;;6109796;23;20415;-87
2021/07/28 03:16:05;;;;;;;11.03;8.17;;;18.90;99.90;;;;;;6112651;23;20447;-85
2021/07/28 03:18:49;;;;;;;8.80;7.50;;;18.90;99.90;;;;;;6135233;23;20431;-86
2021/07/28 03:21:55;;;;;;;8.17;7.37;;;18.70;99.90;;;;;;6109454;23;20400;-87
2021/07/28 03:24:31;;;;;;;8.50;7.70;;;18.90;99.90;;;;;;6120371;23;20528;-88
2021/07/28 03:27:11;;;;;;;9.80;8.50;;;19.10;99.90;;;;;;6109167;23;20451;-86
2021/07/28 03:29:47;;;;;;;8.80;7.90;;;19.00;99.90;;;;;;6111368;23;20513;-87
2021/07/28 03:32:38;;;;;;;11.50;8.73;;;19.00;99.90;;;;;;6135595;23;20418;-87
2021/07/28 03:35:12;;;;;;;11.67;8.13;;;19.00;99.90;;;;;;6109655;23;20419;-87
2021/07/28 03:38:03;;;;;;;8.60;7.80;;;18.80;99.90;;;;;;6135371;23;20475;-85
2021/07/28 03:40:36;;;;;;;9.50;8.23;;;18.80;99.90;;;;;;6108464;23;20416;-88
2021/07/28 03:43:36;;;;;;;9.10;8.23;;;18.80;99.90;;;;;;6108978;23;20412;-87
2021/07/28 03:46:44;;;;;;;8.80;7.70;;;18.60;99.90;;;;;;6109176;23;20453;-87
2021/07/28 03:49:16;;;;;;;9.70;8.70;;;18.70;99.90;;;;;;6141901;23;20439;-86
2021/07/28 03:51:44;;;;;;;9.73;7.80;;;18.60;99.90;;;;;;6108160;23;20384;-87
2021/07/28 03:54:39;;;;;;;8.73;7.73;;;18.60;99.90;;;;;;6108324;23;20423;-88
2021/07/28 03:57:10;;;;;;;8.27;7.40;;;18.60;99.90;;;;;;5987482;24;20518;-87
2021/07/28 03:59:43;;;;;;;12.93;8.50;;;18.70;99.90;;;;;;5987596;24;20508;-86
2021/07/28 04:06:44;;;;;;;8.17;6.60;;;18.50;99.90;;;;;;6094843;23;20922;-86
2021/07/28 04:09:21;;;;;;;9.00;8.10;;;18.50;99.90;;;;;;6135535;23;20486;-86
2021/07/28 04:12:08;;;;;;;8.10;7.30;;;18.40;99.90;;;;;;6109356;23;20415;-87
2021/07/28 04:14:35;;;;;;;8.90;8.00;;;18.50;99.90;;;;;;6132898;23;20408;-87
2021/07/28 04:17:32;;;;;;;8.67;7.80;;;18.60;99.90;;;;;;6107842;23;20482;-87
2021/07/28 04:20:24;;;;;;;8.20;7.40;;;18.60;99.90;;;;;;6089063;23;20776;-87
2021/07/28 04:24:20;;;;;;;8.43;7.63;;;18.60;99.90;;;;;;6109281;23;20404;-88
2021/07/28 04:27:05;;;;;;;9.40;7.90;;;18.60;99.90;;;;;;5985233;24;21178;-87
2021/07/28 04:32:45;;;;;;;11.47;8.50;;;18.70;99.90;;;;;;6133662;23;20427;-87
2021/07/28 04:36:05;;;;;;;8.63;7.83;;;18.80;99.90;;;;;;6133355;23;20510;-87
2021/07/28 04:39:09;;;;;;;7.93;7.17;;;18.70;99.90;;;;;;6089200;23;20439;-89
2021/07/28 04:41:37;;;;;;;9.43;7.17;;;18.60;99.90;;;;;;6031906;23;20394;-87
2021/07/28 04:44:15;;;;;;;8.67;7.77;;;18.60;99.90;;;;;;6144970;23;20472;-88
2021/07/28 04:47:27;;;;;;;8.10;7.37;;;18.60;99.90;;;;;;6099104;23;20466;-88
2021/07/28 04:49:57;;;;;;;8.30;6.50;;;18.70;99.90;;;;;;6135908;23;20455;-86
2021/07/28 04:52:25;;;;;;;8.73;7.80;;;18.80;99.90;;;;;;6111623;23;20404;-88
2021/07/28 04:54:52;;;;;;;8.73;7.83;;;18.80;99.90;;;;;;6111337;23;20491;-88
2021/07/28 04:57:22;;;;;;;9.60;7.50;;;18.80;99.90;;;;;;6116024;23;20510;-87
2021/07/28 04:59:54;;;;;;;8.53;7.53;;;18.90;99.90;;;;;;6112140;23;20946;-85
2021/07/28 05:03:12;;;;;;;9.33;7.93;;;18.80;99.90;;;;;;6137677;23;20400;-89
2021/07/28 05:06:15;;;;;;;10.13;7.63;;;18.80;99.90;;;;;;6023235;23;20459;-88
2021/07/28 05:11:55;;;;;;;9.73;7.60;;;18.80;99.90;;;;;;6188149;22;20498;-87
2021/07/28 05:14:31;;;;;;;8.20;7.40;;;19.00;99.90;;;;;;6173515;23;20521;-85
2021/07/28 05:17:00;;;;;;;8.50;7.30;;;19.00;99.90;;;;;;6169299;23;20409;-86
2021/07/28 05:20:29;;;;;;;8.10;7.30;;;19.10;99.90;;;;;;6154781;23;20415;-85
2021/07/28 05:23:23;;;;;;;7.80;7.10;;;18.90;99.90;;;;;;6166581;23;20406;-89
2021/07/28 05:25:53;;;;;;;8.43;7.37;;;19.00;99.90;;;;;;6139864;23;20935;-86
2021/07/28 05:28:20;;;;;;;7.70;7.00;;;18.90;99.90;;;;;;6166312;23;20450;-85
2021/07/28 05:30:51;;;;;;;9.30;7.27;;;19.00;99.90;;;;;;6167425;23;20439;-85
2021/07/28 05:33:21;;;;;;;8.10;6.60;;;19.00;99.90;;;;;;6164938;23;20411;-88
2021/07/28 05:35:48;;;;;;;7.70;6.93;;;19.00;99.90;;;;;;6180919;23;20517;-90
2021/07/28 05:48:58;;;;;;;7.27;6.50;;;19.20;99.90;;;;;;6162677;23;20782;-85
2021/07/28 05:51:31;;;;;;;7.60;6.50;;;19.20;99.90;;;;;;6156416;23;20498;-90
2021/07/28 05:54:08;;;;;;;7.47;6.40;;;19.20;99.90;;;;;;6158150;23;20445;-89
2021/07/28 06:03:24;;;;;;;9.13;6.93;;;19.20;99.90;;;;;;6174793;23;20450;-88
2021/07/28 06:06:45;;;;;;;10.50;7.00;;;19.20;99.90;;;;;;6178477;23;20387;-87
2021/07/28 06:09:40;;;;;;;7.90;7.10;;;19.30;99.90;;;;;;6062109;23;20426;-87
2021/07/28 06:13:41;;;;;;;8.63;6.57;;;19.20;99.90;;;;;;6148321;23;20474;-87
2021/07/28 06:16:08;;;;;;;7.43;6.47;;;19.30;99.90;;;;;;6082857;23;20430;-87
2021/07/28 06:19:09;;;;;;;6.77;6.07;;;19.30;99.90;;;;;;6061698;23;20441;-86
2021/07/28 06:22:12;;;;;;;6.73;6.13;;;19.30;99.90;;;;;;6092266;23;20436;-87
2021/07/28 06:25:04;;;;;;;8.80;6.70;;;19.40;99.90;;;;;;6050393;23;20437;-87
2021/07/28 06:27:50;;;;;;;7.73;6.10;;;19.60;99.90;;;;;;6091604;23;20432;-87
2021/07/28 06:30:40;;;;;;;7.97;6.80;;;19.50;99.90;;;;;;6092835;23;20405;-87
2021/07/28 06:33:15;;;;;;;9.40;6.93;;;19.60;99.90;;;;;;6119559;23;20428;-85
2021/07/28 06:36:19;;;;;;;7.87;6.87;;;19.40;99.90;;;;;;6102030;23;20493;-88
2021/07/28 06:39:18;;;;;;;7.97;6.50;;;19.70;99.90;;;;;;6121659;23;20448;-88
2021/07/28 06:48:54;;;;;;;7.17;5.33;;;20.00;99.90;;;;;;6099448;23;20440;-89
2021/07/28 06:51:28;;;;;;;6.43;5.80;;;20.00;99.90;;;;;;6121968;23;20411;-89
2021/07/28 06:57:31;;;;;;;6.50;5.90;;;19.90;99.90;;;;;;6122306;23;20405;-87
2021/07/28 07:00:42;;;;;;;7.70;6.70;;;20.00;99.90;;;;;;6121857;23;20485;-89
2021/07/28 07:03:41;;;;;;;6.50;5.90;;;20.30;99.90;;;;;;6155427;23;20402;-88
2021/07/28 07:06:39;;;;;;;5.60;5.10;;;20.50;99.90;;;;;;6159324;23;20457;-88
2021/07/28 07:09:22;;;;;;;6.13;5.60;;;20.60;99.90;;;;;;6182766;23;20411;-89
2021/07/28 07:12:13;;;;;;;8.13;6.17;;;20.80;99.90;;;;;;6182567;23;20415;-87
2021/07/28 07:15:34;;;;;;;6.03;5.50;;;20.90;99.90;;;;;;6083693;23;20415;-87
2021/07/28 07:18:47;;;;;;;7.13;5.40;;;21.00;99.90;;;;;;6049108;23;20437;-88
2021/07/28 07:21:15;;;;;;;5.93;5.43;;;20.90;99.90;;;;;;6058724;23;20401;-87
2021/07/28 07:28:06;;;;;;;7.20;6.53;;;21.00;99.90;;;;;;6029645;23;20489;-87
2021/07/28 07:30:50;;;;;;;8.43;7.50;;;20.70;99.90;;;;;;6011160;23;20438;-90
2021/07/28 07:42:40;;;;;;;;;;;;;;;;;;;;;
2021/07/28 07:45:47;;;;;;;7.53;5.60;;;20.80;99.90;;;;;;6006929;23;20400;-90
2021/07/28 07:48:23;;;;;;;6.60;6.00;;;20.60;99.90;;;;;;6056307;23;20451;-91
2021/07/28 07:50:54;;;;;;;7.53;5.77;;;20.80;99.90;;;;;;6093535;23;20414;-89
2021/07/28 07:53:43;;;;;;;7.57;6.50;;;21.00;99.90;;;;;;6104361;23;20518;-89
2021/07/28 07:57:30;;;;;;;;;;;;;;;;;;;;;
2021/07/28 08:00:24;;;;;;;6.30;5.70;;;21.50;99.90;;;;;;6093556;23;20414;-91
2021/07/28 08:03:11;;;;;;;6.10;5.50;;;21.20;99.90;;;;;;6092198;23;20501;-88
2021/07/28 08:06:34;;;;;;;6.20;5.63;;;21.30;99.90;;;;;;6006895;23;20360;-88
2021/07/28 08:09:34;;;;;;;7.73;7.07;;;22.00;99.90;;;;;;6072500;23;20429;-90
2021/07/28 08:12:33;;;;;;;5.50;4.93;;;21.90;99.90;;;;;;6181873;23;20454;-88
2021/07/28 08:15:39;;;;;;;7.70;6.07;;;21.70;99.90;;;;;;6143290;23;20396;-88
2021/07/28 08:24:33;;;;;;;8.03;7.00;;;21.10;99.90;;;;;;6181636;23;20486;-89
2021/07/28 08:27:26;;;;;;;12.27;6.20;;;21.50;99.90;;;;;;6158598;23;20447;-90
2021/07/28 08:30:55;;;;;;;;;;;;;;;;;;;;;
2021/07/28 08:37:14;;;;;;;6.80;6.10;;;22.50;99.90;;;;;;6131515;23;20453;-91
2021/07/28 08:39:55;;;;;;;6.70;6.10;;;22.20;99.90;;;;;;6151561;23;20410;-90
2021/07/28 08:43:33;;;;;;;6.07;5.50;;;22.10;99.90;;;;;;6151789;23;20426;-91
2021/07/28 08:49:42;;;;;;;6.80;5.80;;;21.80;99.90;;;;;;6111154;23;20443;-89
2021/07/28 08:52:25;;;;;;;11.20;6.73;;;21.80;99.90;;;;;;6172464;23;20410;-87
2021/07/28 08:55:10;;;;;;;7.50;6.80;;;22.10;99.90;;;;;;6146712;23;20407;-88
2021/07/28 08:58:08;;;;;;;6.00;5.50;;;23.50;99.90;;;;;;6147261;23;20437;-90
2021/07/28 09:01:32;;;;;;;6.50;5.90;;;27.00;96.40;;;;;;6125138;23;20403;-88
2021/07/28 09:05:00;;;;;;;5.00;4.50;;;27.40;92.30;;;;;;6145329;23;20398;-87
2021/07/28 09:08:11;;;;;;;4.90;3.87;;;26.30;93.00;;;;;;6129842;23;20426;-90
2021/07/28 09:11:03;;;;;;;3.23;3.03;;;25.20;93.30;;;;;;6146429;23;20468;-88
2021/07/28 09:13:47;;;;;;;3.13;2.80;;;24.00;94.00;;;;;;6150332;23;20418;-88
2021/07/28 09:23:29;;;;;;;;;;;;;;;;;;;;;
2021/07/28 09:26:38;;;;;;;3.90;3.60;;;22.10;98.80;;;;;;6167232;23;20418;-88
2021/07/28 09:29:49;;;;;;;3.60;3.30;;;22.40;99.00;;;;;;6166385;23;20465;-89
2021/07/28 09:33:51;;;;;;;6.53;3.70;;;23.30;97.30;;;;;;6032014;23;20414;-86
2021/07/28 09:37:17;;;;;;;3.63;2.97;;;23.50;96.30;;;;;;5991316;24;20388;-87
2021/07/28 09:44:40;;;;;;;3.17;2.87;;;26.40;91.00;;;;;;5992207;24;20499;-88
2021/07/28 10:05:21;;;;;;;3.40;3.07;;;26.30;77.70;;;;;;6029238;23;20435;-90
2021/07/28 10:08:17;;;;;;;4.70;2.80;;;25.70;78.00;;;;;;5975012;24;20486;-89
2021/07/28 10:11:32;;;;;;;2.70;2.50;;;25.40;78.40;;;;;;6020309;23;20410;-87
2021/07/28 10:14:08;;;;;;;2.70;2.40;;;24.80;79.90;;;;;;6001036;23;20421;-87
2021/07/28 10:20:39;;;;;;;3.60;2.87;;;24.60;79.90;;;;;;6139902;23;20478;-86
2021/07/28 10:27:32;;;;;;;4.93;2.80;;;25.70;77.10;;;;;;6043739;23;20494;-86
2021/07/28 10:30:32;;;;;;;3.33;3.03;;;25.90;73.80;;;;;;6012957;23;20413;-88
2021/07/28 10:33:36;;;;;;;2.57;2.27;;;24.90;76.40;;;;;;6081712;23;20416;-86
2021/07/28 10:40:37;;;;;;;4.23;3.10;;;24.60;78.80;;;;;;6111021;23;20527;-90
2021/07/28 10:43:29;;;;;;;5.03;2.87;;;25.10;77.60;;;;;;6052386;23;20457;-89
2021/07/28 10:46:08;;;;;;;4.53;2.80;;;25.70;75.00;;;;;;6085815;23;20416;-88
2021/07/28 10:48:58;;;;;;;2.97;2.30;;;26.40;72.70;;;;;;6082677;23;20517;-90
2021/07/28 10:52:35;;;;;;;2.90;2.70;;;28.50;67.60;;;;;;6084085;23;20476;-87
2021/07/28 10:55:20;;;;;;;3.03;2.73;;;28.50;62.20;;;;;;6087396;23;20397;-89
2021/07/28 11:01:26;;;;;;;2.60;2.40;;;27.10;64.20;;;;;;6168797;23;20433;-88
2021/07/28 11:04:23;;;;;;;2.83;2.63;;;26.10;68.10;;;;;;6158075;23;20448;-91
2021/07/28 11:07:52;;;;;;;3.17;2.27;;;25.50;70.30;;;;;;6129797;23;20384;-90
2021/07/28 11:10:45;;;;;;;2.40;2.20;;;25.40;70.90;;;;;;6118136;23;20404;-89
2021/07/28 11:13:14;;;;;;;2.50;2.27;;;25.90;70.40;;;;;;6132038;23;20486;-89
2021/07/28 11:15:52;;;;;;;2.30;1.80;;;27.70;64.90;;;;;;6132105;23;20408;-88
2021/07/28 11:18:45;;;;;;;2.40;2.20;;;29.10;59.80;;;;;;6132488;23;20802;-88
2021/07/28 11:21:24;;;;;;;2.30;2.10;;;29.40;56.80;;;;;;6106151;23;20420;-87
2021/07/28 11:23:54;;;;;;;2.90;2.70;;;28.90;57.30;;;;;;6128084;23;20396;-89
2021/07/28 11:26:23;;;;;;;2.40;2.17;;;28.50;58.10;;;;;;6152932;23;20459;-88
2021/07/28 11:28:55;;;;;;;2.83;2.10;;;27.30;60.40;;;;;;6127373;23;20527;-89
2021/07/28 11:31:27;;;;;;;3.37;2.10;;;26.40;62.20;;;;;;6126643;23;20408;-90
2021/07/28 11:34:28;;;;;;;4.33;2.50;;;25.70;65.00;;;;;;6125864;23;20431;-89
2021/07/28 11:36:57;;;;;;;3.27;1.90;;;25.60;65.80;;;;;;6134877;23;20404;-89
2021/07/28 11:39:25;;;;;;;2.33;2.13;;;25.60;66.80;;;;;;6108660;23;20438;-88
2021/07/28 11:42:10;;;;;;;2.17;1.60;;;26.00;67.40;;;;;;6111694;23;20418;-89
2021/07/28 11:44:45;;;;;;;1.60;1.50;;;26.40;63.00;;;;;;6107542;23;20888;-89
2021/07/28 11:47:25;;;;;;;2.53;1.30;;;26.70;58.70;;;;;;6107170;23;20439;-88
2021/07/28 11:50:05;;;;;;;2.60;1.87;;;27.10;56.90;;;;;;6107019;23;20434;-89
2021/07/28 11:52:46;;;;;;;2.10;2.00;;;27.20;56.50;;;;;;6106946;23;20412;-88
2021/07/28 11:55:25;;;;;;;1.93;1.80;;;26.60;57.70;;;;;;6114146;23;20419;-89
2021/07/28 11:57:52;;;;;;;2.17;1.70;;;26.60;57.80;;;;;;6128362;23;20431;-86
2021/07/28 12:00:39;;;;;;;2.23;1.70;;;26.40;58.00;;;;;;6128070;23;20419;-90
2021/07/28 12:03:26;;;;;;;1.80;1.70;;;25.80;59.80;;;;;;6128330;23;20412;-89
2021/07/28 12:06:11;;;;;;;3.50;2.30;;;25.50;62.00;;;;;;6128711;23;20427;-90
2021/07/28 12:08:40;;;;;;;2.20;2.10;;;25.30;62.80;;;;;;6128067;23;20440;-91
2021/07/28 12:11:11;;;;;;;2.60;2.27;;;25.10;64.10;;;;;;6126756;23;20449;-90
2021/07/28 12:13:47;;;;;;;3.20;2.37;;;25.00;64.90;;;;;;6150531;23;20460;-91
2021/07/28 12:16:14;;;;;;;2.00;1.90;;;25.00;65.70;;;;;;6111724;23;20437;-88
2021/07/28 12:18:43;;;;;;;6.47;2.70;;;24.90;66.40;;;;;;6133584;23;20498;-87
2021/07/28 12:21:14;;;;;;;3.63;2.53;;;25.00;66.70;;;;;;6106433;23;20439;-88
2021/07/28 12:23:53;;;;;;;2.30;2.20;;;25.10;66.70;;;;;;6108115;23;20419;-88
2021/07/28 12:26:49;;;;;;;2.40;2.20;;;25.20;66.40;;;;;;6105818;23;20410;-88
2021/07/28 12:29:41;;;;;;;2.23;2.10;;;25.50;65.70;;;;;;6108053;23;20463;-88
2021/07/28 12:32:14;;;;;;;2.60;2.37;;;25.90;64.70;;;;;;6142692;23;20462;-89
2021/07/28 12:34:41;;;;;;;2.93;2.20;;;25.70;64.60;;;;;;6126115;23;20430;-90
2021/07/28 12:37:21;;;;;;;2.70;2.07;;;25.70;64.20;;;;;;6122061;23;20413;-88
2021/07/28 12:39:57;;;;;;;2.10;2.00;;;25.60;61.90;;;;;;6109599;23;20450;-88
2021/07/28 12:42:29;;;;;;;3.17;2.30;;;25.50;62.10;;;;;;6132372;23;20495;-88
2021/07/28 12:44:56;;;;;;;2.77;2.20;;;25.50;61.00;;;;;;6132084;23;20424;-88
2021/07/28 12:47:23;;;;;;;2.83;2.00;;;25.40;60.70;;;;;;6131189;23;20424;-88
2021/07/28 12:49:52;;;;;;;2.10;2.00;;;25.50;60.90;;;;;;6122626;23;20482;-90
2021/07/28 12:52:19;;;;;;;3.50;1.93;;;25.70;60.10;;;;;;6149135;23;20439;-87
2021/07/28 12:54:45;;;;;;;5.57;2.10;;;26.20;59.20;;;;;;6124255;23;20455;-90
2021/07/28 12:57:14;;;;;;;1.97;1.87;;;25.90;59.60;;;;;;6113111;23;20422;-88
2021/07/28 12:59:41;;;;;;;2.33;2.17;;;25.70;60.60;;;;;;6132820;23;20538;-87
2021/07/28 13:02:08;;;;;;;1.90;1.80;;;25.70;61.60;;;;;;6105071;23;20419;-88
2021/07/28 13:04:35;;;;;;;2.03;1.90;;;25.60;62.30;;;;;;6104542;23;20411;-88
2021/07/28 13:07:12;;;;;;;2.17;1.97;;;25.60;63.40;;;;;;6129682;23;20502;-89
2021/07/28 13:09:39;;;;;;;2.70;2.50;;;25.50;63.00;;;;;;6105671;23;20531;-88
2021/07/28 13:12:06;;;;;;;4.90;2.00;;;25.20;63.50;;;;;;6105364;23;20487;-87
2021/07/28 13:14:33;;;;;;;3.70;2.33;;;25.10;64.20;;;;;;6113805;23;20432;-88
2021/07/28 13:17:00;;;;;;;2.60;2.10;;;25.00;64.80;;;;;;6139192;23;20713;-88
2021/07/28 13:19:27;;;;;;;5.20;3.20;;;24.90;65.30;;;;;;6108883;23;20510;-88
2021/07/28 13:21:54;;;;;;;3.30;2.10;;;24.80;65.20;;;;;;6133449;23;20983;-89
2021/07/28 13:24:21;;;;;;;2.93;2.00;;;24.80;65.80;;;;;;6108279;23;20506;-89
2021/07/28 13:26:49;;;;;;;2.70;2.50;;;24.90;66.50;;;;;;6108191;23;20443;-88
2021/07/28 13:29:16;;;;;;;2.40;2.07;;;25.00;66.40;;;;;;6144676;23;20474;-88
2021/07/28 13:31:43;;;;;;;1.83;1.70;;;25.60;64.00;;;;;;6180490;23;20417;-89
2021/07/28 13:34:10;;;;;;;3.80;2.40;;;25.50;62.10;;;;;;6181202;23;20474;-89
2021/07/28 13:36:37;;;;;;;2.63;2.17;;;25.40;62.20;;;;;;6180546;23;20415;-89
2021/07/28 13:39:04;;;;;;;2.03;1.73;;;25.20;63.00;;;;;;6179904;23;20503;-89
2021/07/28 13:41:31;;;;;;;2.67;2.20;;;25.30;62.70;;;;;;6180639;23;20449;-91
2021/07/28 13:43:58;;;;;;;3.90;2.63;;;25.50;62.40;;;;;;6180868;23;20453;-88
2021/07/28 13:46:28;;;;;;;1.97;1.60;;;25.40;62.50;;;;;;6178814;23;20399;-90
2021/07/28 13:48:55;;;;;;;2.50;2.30;;;25.20;62.80;;;;;;6180529;23;20490;-90
2021/07/28 13:51:22;;;;;;;1.87;1.77;;;25.20;63.10;;;;;;6180294;23;20406;-91
2021/07/28 13:53:49;;;;;;;2.00;1.80;;;25.10;63.90;;;;;;6177160;23;20441;-91
2021/07/28 13:56:17;;;;;;;3.03;1.80;;;25.10;64.10;;;;;;6163559;23;20394;-89
2021/07/28 13:58:44;;;;;;;2.77;2.40;;;25.20;64.30;;;;;;6170666;23;20427;-88
2021/07/28 14:01:11;;;;;;;2.13;1.70;;;25.20;63.90;;;;;;6163106;23;20414;-87
2021/07/28 14:03:38;;;;;;;3.30;1.93;;;25.60;63.50;;;;;;6175662;23;20532;-88
2021/07/28 14:06:05;;;;;;;2.47;2.27;;;26.00;62.60;;;;;;6173811;23;20438;-88
2021/07/28 14:08:32;;;;;;;4.47;2.57;;;25.70;63.00;;;;;;6164159;23;20453;-90
2021/07/28 14:11:07;;;;;;;3.53;1.73;;;25.70;63.50;;;;;;6164062;23;20474;-87
2021/07/28 14:13:35;;;;;;;3.93;2.20;;;25.40;64.60;;;;;;6164525;23;20403;-88
2021/07/28 14:16:04;;;;;;;3.03;2.27;;;25.50;65.30;;;;;;6163789;23;20441;-88
2021/07/28 14:18:32;;;;;;;5.70;2.10;;;26.20;64.40;;;;;;6162864;23;20443;-90
2021/07/28 14:20:59;;;;;;;2.10;1.90;;;26.20;63.00;;;;;;6163302;23;20411;-89
2021/07/28 14:23:28;;;;;;;3.83;1.97;;;26.10;63.80;;;;;;6161790;23;20414;-89
2021/07/28 14:25:56;;;;;;;5.93;2.47;;;26.00;63.50;;;;;;6160889;23;20477;-88
2021/07/28 14:28:25;;;;;;;3.00;2.23;;;26.50;60.90;;;;;;6164069;23;20446;-88
2021/07/28 14:30:55;;;;;;;4.50;1.70;;;26.10;61.10;;;;;;6190512;23;20379;-89
2021/07/28 14:33:22;;;;;;;2.80;1.97;;;26.20;60.70;;;;;;6192457;23;20409;-87
2021/07/28 14:35:48;;;;;;;2.30;1.80;;;26.00;60.90;;;;;;6163359;23;20410;-87
2021/07/28 14:38:15;;;;;;;2.43;1.77;;;26.20;60.00;;;;;;6164939;23;20537;-87
2021/07/28 14:40:43;;;;;;;1.70;1.60;;;26.20;60.30;;;;;;6163247;23;20406;-89
2021/07/28 14:43:10;;;;;;;3.10;1.90;;;25.80;61.40;;;;;;6191501;23;20430;-89
2021/07/28 14:45:37;;;;;;;4.27;2.00;;;25.60;62.60;;;;;;6165310;23;20398;-88
2021/07/28 14:48:05;;;;;;;3.40;1.93;;;25.80;61.20;;;;;;6192243;23;20441;-89
2021/07/28 14:50:32;;;;;;;2.50;1.93;;;25.60;62.00;;;;;;6190958;23;20493;-88
2021/07/28 14:53:04;;;;;;;2.20;2.00;;;25.50;62.20;;;;;;6156027;23;20538;-88
2021/07/28 14:55:30;;;;;;;2.00;1.80;;;25.70;62.50;;;;;;6137578;23;20413;-87
2021/07/28 14:57:57;;;;;;;2.70;2.23;;;25.60;62.50;;;;;;6137880;23;20423;-88
2021/07/28 15:00:24;;;;;;;1.90;1.80;;;25.50;62.40;;;;;;6168259;23;20417;-88
2021/07/28 15:02:53;;;;;;;2.43;2.07;;;25.40;62.20;;;;;;6167969;23;20434;-87
2021/07/28 15:05:20;;;;;;;2.23;2.10;;;25.30;61.90;;;;;;6170091;23;20411;-89
2021/07/28 15:07:47;;;;;;;2.63;2.20;;;25.30;62.70;;;;;;6173302;23;20407;-87
2021/07/28 15:10:13;;;;;;;2.13;1.93;;;25.20;62.80;;;;;;6141854;23;20443;-90
2021/07/28 15:12:40;;;;;;;2.70;2.20;;;25.60;61.40;;;;;;6136417;23;20411;-88
2021/07/28 15:15:07;;;;;;;4.27;2.10;;;25.90;59.90;;;;;;6162373;23;20494;-88
2021/07/28 15:17:34;;;;;;;2.70;1.90;;;25.70;60.20;;;;;;6135278;23;20391;-87
2021/07/28 15:20:02;;;;;;;3.40;1.70;;;25.50;61.40;;;;;;6161065;23;20501;-88
2021/07/28 15:22:29;;;;;;;2.53;2.00;;;25.60;60.70;;;;;;6137297;23;20411;-89
2021/07/28 15:24:56;;;;;;;6.00;2.00;;;25.40;60.20;;;;;;6137925;23;20415;-89
2021/07/28 15:27:23;;;;;;;1.83;1.53;;;25.10;61.80;;;;;;6140863;23;20411;-88
2021/07/28 15:29:49;;;;;;;2.47;1.90;;;24.90;62.60;;;;;;6165708;23;20450;-88
2021/07/28 15:32:18;;;;;;;1.83;1.73;;;24.90;62.90;;;;;;6138343;23;20406;-89
2021/07/28 15:34:45;;;;;;;2.00;1.80;;;24.80;62.90;;;;;;6139569;23;20478;-88
2021/07/28 15:37:12;;;;;;;2.27;2.07;;;24.80;62.90;;;;;;6170675;23;20411;-89
2021/07/28 15:40:07;;;;;;;3.20;1.80;;;24.80;63.10;;;;;;6153889;23;20486;-89
2021/07/28 15:42:47;;;;;;;1.90;1.70;;;24.80;63.20;;;;;;6157222;23;20437;-89
2021/07/28 15:45:16;;;;;;;2.37;2.10;;;24.70;63.90;;;;;;6153369;23;20422;-90
2021/07/28 15:47:44;;;;;;;3.17;2.13;;;24.70;64.00;;;;;;6165080;23;20918;-89
2021/07/28 15:50:13;;;;;;;2.90;1.97;;;24.70;64.60;;;;;;6137404;23;20530;-88
2021/07/28 15:52:40;;;;;;;2.50;2.13;;;24.70;64.70;;;;;;6192255;23;20438;-89
2021/07/28 15:55:09;;;;;;;5.23;2.27;;;24.70;63.30;;;;;;6184142;23;20425;-90
2021/07/28 15:57:37;;;;;;;1.80;1.70;;;24.60;62.40;;;;;;6209776;23;20465;-90
2021/07/28 16:00:08;;;;;;;4.10;2.43;;;24.50;63.20;;;;;;6184993;23;20441;-90
2021/07/28 16:02:38;;;;;;;4.57;2.13;;;24.60;63.20;;;;;;6183142;23;20410;-88